Schneifelwetter: Wetterstation Hallschlag, 537 m . NN
Wetterdaten: Mittwoch, 21.11.2012
Datum Zeit Temp. A. Feuchte A. Luftdruck Regen Wind Richtung Richtung Sonnenschein T Regen Taupunkt Windchill
21.11.2012 00:09 1,3 C 99 % 1014 hPa 0,0 l/m 0,0 km/h (0 Bft) W 275 0 min 0 min 1,2 C 1,3 C
21.11.2012 00:24 1,3 C 99 % 1014 hPa 0,0 l/m 0,0 km/h (0 Bft) W 275 0 min 0 min 1,2 C 1,3 C
21.11.2012 00:39 1,2 C 98 % 1014 hPa 0,0 l/m 0,0 km/h (0 Bft) W 275 0 min 0 min 0,9 C 1,2 C
21.11.2012 00:54 1,2 C 99 % 1014 hPa 0,0 l/m 0,0 km/h (0 Bft) S-SO 160 0 min 0 min 1,1 C 1,2 C
21.11.2012 01:09 1,2 C 99 % 1014 hPa 0,0 l/m 0,0 km/h (0 Bft) S-SO 160 0 min 0 min 1,1 C 1,2 C
21.11.2012 01:24 1,1 C 99 % 1014 hPa 0,0 l/m 0,0 km/h (0 Bft) S-SO 160 0 min 0 min 1,0 C 1,1 C
21.11.2012 01:39 1,1 C 99 % 1013 hPa 0,0 l/m 0,0 km/h (0 Bft) S-SO 160 0 min 0 min 1,0 C 1,1 C
21.11.2012 01:54 0,8 C 99 % 1013 hPa 0,0 l/m 0,0 km/h (0 Bft) SO 140 0 min 0 min 0,7 C 0,8 C
21.11.2012 02:09 0,6 C 99 % 1013 hPa 0,0 l/m 7,7 km/h (2 Bft) S22.5 185 0 min 0 min 0,5 C -0,7 C
21.11.2012 02:24 0,3 C 99 % 1013 hPa 0,0 l/m 8,9 km/h (2 Bft) S-SO22.5 160 0 min 0 min 0,2 C -2,2 C
21.11.2012 02:39 0,3 C 99 % 1013 hPa 0,0 l/m 9,0 km/h (2 Bft) S-SO22.5 160 0 min 0 min 0,2 C -2,3 C
21.11.2012 02:54 0,3 C 99 % 1013 hPa 0,0 l/m 5,6 km/h (1 Bft) S 170 0 min 0 min 0,2 C 0,3 C
21.11.2012 03:09 0,3 C 99 % 1013 hPa 0,0 l/m 5,3 km/h (1 Bft) S-SO 165 0 min 0 min 0,2 C 0,3 C
21.11.2012 03:24 0,1 C 99 % 1013 hPa 0,0 l/m 5,6 km/h (1 Bft) S 175 0 min 0 min -0,0 C 0,1 C
21.11.2012 03:39 0,0 C 99 % 1013 hPa 0,0 l/m 5,3 km/h (1 Bft) S 170 0 min 0 min -0,1 C 0,0 C
21.11.2012 03:54 -0,2 C 98 % 1013 hPa 0,0 l/m 7,4 km/h (2 Bft) S-SO22.5 165 0 min 0 min -0,5 C -1,2 C
21.11.2012 04:09 -0,4 C 98 % 1013 hPa 0,0 l/m 17,5 km/h (3 Bft) S22.5 170 0 min 0 min -0,7 C -8,9 C
21.11.2012 04:24 -0,4 C 99 % 1013 hPa 0,0 l/m 12,5 km/h (3 Bft) S-SO22.5 165 0 min 0 min -0,5 C -5,8 C
21.11.2012 04:39 -0,4 C 99 % 1013 hPa 0,0 l/m 3,4 km/h (1 Bft) SO 135 0 min 0 min -0,5 C -0,4 C
21.11.2012 04:54 -0,4 C 99 % 1012 hPa 0,0 l/m 7,4 km/h (2 Bft) SW22.5 230 0 min 0 min -0,5 C -1,5 C
21.11.2012 05:09 -0,3 C 99 % 1012 hPa 0,0 l/m 9,4 km/h (2 Bft) S45 180 0 min 0 min -0,4 C -3,3 C
21.11.2012 05:24 -0,4 C 99 % 1012 hPa 0,0 l/m 11,8 km/h (2 Bft) S22.5 170 0 min 0 min -0,5 C -5,3 C
21.11.2012 05:39 -0,5 C 99 % 1012 hPa 0,0 l/m 10,0 km/h (2 Bft) S-SO22.5 165 0 min 0 min -0,6 C -4,0 C
21.11.2012 05:54 -0,5 C 99 % 1012 hPa 0,0 l/m 9,5 km/h (2 Bft) S45 170 0 min 0 min -0,6 C -3,6 C
21.11.2012 06:09 -0,5 C 99 % 1012 hPa 0,0 l/m 12,6 km/h (3 Bft) S45 175 0 min 0 min -0,6 C -6,0 C
21.11.2012 06:24 -0,5 C 99 % 1012 hPa 0,0 l/m 13,5 km/h (3 Bft) S-SO 165 0 min 0 min -0,6 C -6,6 C
21.11.2012 06:39 -0,5 C 99 % 1012 hPa 0,0 l/m 11,7 km/h (2 Bft) S-SO45 160 0 min 0 min -0,6 C -5,4 C
21.11.2012 06:55 -0,5 C 99 % 1012 hPa 0,0 l/m 11,7 km/h (2 Bft) S-SW67.5 195 0 min 0 min -0,6 C -5,4 C
21.11.2012 07:10 -0,5 C 99 % 1012 hPa 0,0 l/m 16,9 km/h (3 Bft) S22.5 170 0 min 0 min -0,6 C -8,7 C
21.11.2012 07:25 -0,5 C 99 % 1012 hPa 0,0 l/m 12,3 km/h (3 Bft) S45 175 0 min 0 min -0,6 C -5,8 C
21.11.2012 07:40 -0,5 C 99 % 1012 hPa 0,0 l/m 16,6 km/h (3 Bft) S-SO22.5 160 0 min 0 min -0,6 C -8,5 C
21.11.2012 08:00 -0,5 C 99 % 1012 hPa 0,0 l/m 14,6 km/h (3 Bft) S45 190 0 min 0 min -0,6 C -7,3 C
21.11.2012 08:15 -0,4 C 99 % 1012 hPa 0,0 l/m 14,3 km/h (3 Bft) S45 170 0 min 0 min -0,5 C -7,0 C
21.11.2012 08:30 -0,4 C 99 % 1012 hPa 0,0 l/m 18,5 km/h (3 Bft) S22.5 170 0 min 0 min -0,5 C -9,4 C
21.11.2012 08:46 -0,3 C 99 % 1012 hPa 0,0 l/m 15,0 km/h (3 Bft) S45 170 0 min 0 min -0,4 C -7,3 C
21.11.2012 09:01 0,0 C 99 % 1012 hPa 0,0 l/m 10,9 km/h (2 Bft) S-SO22.5 165 0 min 0 min -0,1 C -4,2 C
21.11.2012 09:16 0,3 C 99 % 1012 hPa 0,0 l/m 15,6 km/h (3 Bft) S45 170 0 min 0 min 0,2 C -7,0 C
21.11.2012 09:30 0,4 C 99 % 1011 hPa 0,0 l/m 17,8 km/h (3 Bft) S-SO45 165 0 min 0 min 0,3 C -8,0 C
21.11.2012 09:45 0,5 C 99 % 1011 hPa 0,0 l/m 17,9 km/h (3 Bft) S45 170 0 min 0 min 0,4 C -8,0 C
21.11.2012 10:00 0,7 C 99 % 1011 hPa 0,0 l/m 15,9 km/h (3 Bft) S-SO22.5 165 0 min 0 min 0,6 C -6,7 C
21.11.2012 10:16 0,7 C 99 % 1011 hPa 0,0 l/m 18,8 km/h (3 Bft) S-SO22.5 165 0 min 0 min 0,6 C -8,2 C
21.11.2012 10:31 1,2 C 99 % 1011 hPa 0,0 l/m 16,1 km/h (3 Bft) S-SO22.5 150 0 min 0 min 1,1 C -6,1 C
21.11.2012 10:46 1,4 C 99 % 1011 hPa 0,0 l/m 15,9 km/h (3 Bft) S-SO22.5 160 0 min 0 min 1,3 C -5,8 C
21.11.2012 11:00 1,7 C 99 % 1011 hPa 0,0 l/m 12,1 km/h (2 Bft) S-SO22.5 160 0 min 0 min 1,6 C -3,1 C
21.11.2012 11:15 2,3 C 99 % 1011 hPa 0,0 l/m 15,5 km/h (3 Bft) S-SW67.5 195 0 min 0 min 2,2 C -4,5 C
21.11.2012 11:30 2,8 C 99 % 1011 hPa 0,0 l/m 19,4 km/h (3 Bft) S-SW67.5 195 0 min 0 min 2,7 C -5,8 C
21.11.2012 11:46 3,3 C 99 % 1011 hPa 0,0 l/m 14,3 km/h (3 Bft) S-SW45 195 0 min 0 min 3,2 C -2,6 C
21.11.2012 12:01 3,7 C 98 % 1011 hPa 0,0 l/m 18,5 km/h (3 Bft) S45 190 0 min 0 min 3,4 C -4,2 C
21.11.2012 12:15 3,6 C 97 % 1011 hPa 0,0 l/m 17,6 km/h (3 Bft) S45 180 0 min 0 min 3,2 C -3,9 C
21.11.2012 12:30 3,6 C 96 % 1011 hPa 0,0 l/m 16,5 km/h (3 Bft) S22.5 185 0 min 0 min 3,0 C -3,4 C
21.11.2012 12:45 3,7 C 96 % 1011 hPa 0,0 l/m 17,7 km/h (3 Bft) SW45 215 0 min 0 min 3,1 C -3,8 C
21.11.2012 13:01 3,7 C 96 % 1011 hPa 0,0 l/m 15,3 km/h (3 Bft) S-SW22.5 205 0 min 0 min 3,1 C -2,7 C
21.11.2012 13:16 3,6 C 95 % 1011 hPa 0,0 l/m 15,3 km/h (3 Bft) S45 180 0 min 0 min 2,9 C -2,8 C
21.11.2012 13:30 3,6 C 95 % 1011 hPa 0,0 l/m 14,9 km/h (3 Bft) S-SW45 195 0 min 0 min 2,9 C -2,6 C
21.11.2012 13:45 3,7 C 95 % 1011 hPa 0,0 l/m 15,8 km/h (3 Bft) S-SW67.5 210 0 min 0 min 3,0 C -2,9 C
21.11.2012 14:00 3,7 C 95 % 1011 hPa 0,0 l/m 9,6 km/h (2 Bft) S22.5 175 0 min 0 min 3,0 C 0,9 C
21.11.2012 14:16 3,7 C 95 % 1011 hPa 0,0 l/m 14,8 km/h (3 Bft) S-SW45 195 0 min 0 min 3,0 C -2,4 C
21.11.2012 14:31 3,7 C 95 % 1011 hPa 0,0 l/m 15,8 km/h (3 Bft) S22.5 170 0 min 0 min 3,0 C -2,9 C
21.11.2012 14:46 3,7 C 95 % 1011 hPa 0,0 l/m 18,0 km/h (3 Bft) S-SW45 210 0 min 0 min 3,0 C -4,0 C
21.11.2012 15:00 3,9 C 94 % 1011 hPa 0,0 l/m 19,6 km/h (3 Bft) W-SW22.5 255 0 min 0 min 3,0 C -4,4 C
21.11.2012 15:15 3,5 C 95 % 1011 hPa 0,0 l/m 19,0 km/h (3 Bft) W-SW45 240 0 min 0 min 2,8 C -4,7 C
21.11.2012 15:30 3,5 C 95 % 1011 hPa 0,0 l/m 11,5 km/h (2 Bft) SW22.5 220 0 min 0 min 2,8 C -0,6 C
21.11.2012 15:46 3,4 C 95 % 1011 hPa 0,0 l/m 12,0 km/h (2 Bft) S-SO22.5 165 0 min 0 min 2,7 C -1,1 C
21.11.2012 16:01 3,4 C 95 % 1011 hPa 0,0 l/m 15,3 km/h (3 Bft) SW45 215 0 min 0 min 2,7 C -3,0 C
21.11.2012 16:16 3,3 C 95 % 1012 hPa 0,0 l/m 13,8 km/h (3 Bft) S-SW22.5 210 0 min 0 min 2,6 C -2,3 C
21.11.2012 16:30 3,5 C 96 % 1012 hPa 0,0 l/m 24,7 km/h (4 Bft) SW45 215 0 min 0 min 2,9 C -6,9 C
21.11.2012 16:45 3,7 C 96 % 1012 hPa 0,3 l/m 28,1 km/h (4 Bft) SW45 215 0 min 15 min 3,1 C -7,7 C
21.11.2012 17:00 3,7 C 96 % 1012 hPa 0,0 l/m 27,1 km/h (4 Bft) S-SW45 210 0 min 0 min 3,1 C -7,4 C
21.11.2012 17:16 3,5 C 97 % 1012 hPa 0,0 l/m 21,7 km/h (4 Bft) SW45 225 0 min 0 min 3,1 C -5,8 C
21.11.2012 17:31 3,5 C 97 % 1012 hPa 0,0 l/m 26,8 km/h (4 Bft) SW22.5 215 0 min 0 min 3,1 C -7,6 C
21.11.2012 17:45 3,5 C 97 % 1013 hPa 0,0 l/m 24,2 km/h (4 Bft) SW45 225 0 min 0 min 3,1 C -6,7 C
21.11.2012 18:00 3,5 C 97 % 1013 hPa 0,0 l/m 29,3 km/h (5 Bft) SW22.5 215 0 min 0 min 3,1 C -8,3 C
21.11.2012 18:15 3,7 C 98 % 1013 hPa 0,0 l/m 30,4 km/h (5 Bft) SW67.5 225 0 min 0 min 3,4 C -8,3 C
21.11.2012 18:30 3,8 C 98 % 1013 hPa 0,0 l/m 35,3 km/h (5 Bft) SW45 225 0 min 0 min 3,5 C -9,4 C
21.11.2012 18:46 3,8 C 98 % 1014 hPa 0,0 l/m 29,5 km/h (5 Bft) SW22.5 220 0 min 0 min 3,5 C -7,9 C
21.11.2012 19:01 3,8 C 99 % 1014 hPa 0,0 l/m 23,1 km/h (4 Bft) SW45 215 0 min 0 min 3,7 C -5,9 C
21.11.2012 19:15 3,9 C 99 % 1014 hPa 0,0 l/m 24,3 km/h (4 Bft) SW45 230 0 min 0 min 3,8 C -6,2 C
21.11.2012 19:30 4,0 C 99 % 1014 hPa 0,0 l/m 22,5 km/h (4 Bft) SW22.5 230 0 min 0 min 3,9 C -5,4 C
21.11.2012 19:45 4,1 C 99 % 1014 hPa 0,0 l/m 26,1 km/h (4 Bft) SW45 225 0 min 0 min 4,0 C -6,5 C
21.11.2012 20:00 4,4 C 99 % 1014 hPa 0,0 l/m 25,3 km/h (4 Bft) SW45 220 0 min 0 min 4,3 C -5,9 C
21.11.2012 20:16 4,5 C 99 % 1015 hPa 0,0 l/m 21,1 km/h (4 Bft) W-SW45 240 0 min 0 min 4,4 C -4,3 C
21.11.2012 20:31 4,7 C 99 % 1015 hPa 0,0 l/m 32,0 km/h (5 Bft) SW45 230 0 min 0 min 4,6 C -7,3 C
21.11.2012 20:45 4,8 C 99 % 1015 hPa 0,0 l/m 23,0 km/h (4 Bft) W-SW45 240 0 min 0 min 4,7 C -4,5 C
21.11.2012 21:00 4,8 C 99 % 1015 hPa 0,0 l/m 23,0 km/h (4 Bft) S-SW45 210 0 min 0 min 4,7 C -4,5 C
21.11.2012 21:15 5,1 C 99 % 1015 hPa 0,0 l/m 27,5 km/h (4 Bft) SW67.5 225 0 min 0 min 5,0 C -5,6 C
21.11.2012 21:30 4,9 C 99 % 1015 hPa 0,0 l/m 30,0 km/h (5 Bft) W-SW45 240 0 min 0 min 4,8 C -6,5 C
21.11.2012 21:46 5,1 C 99 % 1016 hPa 0,0 l/m 31,4 km/h (5 Bft) W-SW67.5 245 0 min 0 min 5,0 C -6,6 C
21.11.2012 22:01 5,1 C 99 % 1016 hPa 0,0 l/m 23,6 km/h (4 Bft) W-SW45 240 0 min 0 min 5,0 C -4,4 C
21.11.2012 22:15 5,3 C 99 % 1016 hPa 0,0 l/m 29,1 km/h (5 Bft) SW45 230 0 min 0 min 5,2 C -5,7 C
21.11.2012 22:30 5,4 C 99 % 1016 hPa 0,0 l/m 31,3 km/h (5 Bft) W-SW45 245 0 min 0 min 5,3 C -6,1 C
21.11.2012 22:45 5,5 C 99 % 1016 hPa 0,0 l/m 22,9 km/h (4 Bft) SW67.5 230 0 min 0 min 5,4 C -3,6 C
21.11.2012 23:01 5,5 C 99 % 1016 hPa 0,0 l/m 29,6 km/h (5 Bft) W45 260 0 min 0 min 5,4 C -5,6 C
21.11.2012 23:16 5,5 C 99 % 1017 hPa 0,0 l/m 25,2 km/h (4 Bft) W-SW45 250 0 min 0 min 5,4 C -4,3 C
21.11.2012 23:30 5,4 C 99 % 1017 hPa 0,0 l/m 20,5 km/h (4 Bft) W-SW22.5 250 0 min 0 min 5,3 C -2,8 C
21.11.2012 23:45 5,3 C 98 % 1017 hPa 0,0 l/m 22,1 km/h (4 Bft) W-SW22.5 255 0 min 0 min 5,0 C -3,6 C
21.11.2012 23:54 5,2 C 98 % 1017 hPa 0,0 l/m 20,4 km/h (4 Bft) W-SW22.5 250 0 min 0 min 4,9 C -3,1 C
_ Min-Zeit 05:39 15:00 09:30 - 00:09 - - - - 04:09 08:30
Minimum _ -0,5 C 94 % 1011 hPa - 0,0 km/h (0 Bft) - - - - -0,7 C -9,4 C
_ Max-Zeit 22:45 00:09 23:16 16:45 18:30 - - 00:09 16:45 22:45 00:09
Maximum _ 5,5 C 99 % 1017 hPa 0,3 l/m 35,3 km/h
SW (5 Bft)
- - 0 min 15 min 5,4 C 1,3 C
Durchschnitt _ 2,3 C 98 % 1013 hPa #0,3 l/m 16,5 km/h (3 Bft) S - #0 min. #15 min. 2,0 C -4,3 C